sensor_id;sensor_type;location;lat;lon;timestamp;pressure;altitude;pressure_sealevel;temperature;humidity
28167;BME280;15455;53.376;-6.262;2023-03-18T00:01:30;99830.75;;;8.16;100.00
28167;BME280;15455;53.376;-6.262;2023-03-18T00:04:16;99831.56;;;8.20;100.00
28167;BME280;15455;53.376;-6.262;2023-03-18T00:07:02;99837.66;;;8.22;100.00
28167;BME280;15455;53.376;-6.262;2023-03-18T00:09:47;99841.94;;;8.23;100.00
28167;BME280;15455;53.376;-6.262;2023-03-18T00:12:33;99844.56;;;8.26;100.00
28167;BME280;15455;53.376;-6.262;2023-03-18T00:15:19;99841.06;;;8.26;100.00
28167;BME280;15455;53.376;-6.262;2023-03-18T00:18:04;99841.94;;;8.26;100.00
28167;BME280;15455;53.376;-6.262;2023-03-18T00:20:50;99842.81;;;8.27;100.00
28167;BME280;15455;53.376;-6.262;2023-03-18T00:23:36;99849.75;;;8.26;100.00
28167;BME280;15455;53.376;-6.262;2023-03-18T00:26:24;99854.94;;;8.26;100.00
28167;BME280;15455;53.376;-6.262;2023-03-18T00:29:09;99855.81;;;8.25;100.00
28167;BME280;15455;53.376;-6.262;2023-03-18T00:31:57;99855.78;;;8.27;100.00
28167;BME280;15455;53.376;-6.262;2023-03-18T00:34:43;99856.66;;;8.26;100.00
28167;BME280;15455;53.376;-6.262;2023-03-18T00:37:30;99867.94;;;8.26;100.00
28167;BME280;15455;53.376;-6.262;2023-03-18T00:40:17;99860.13;;;8.23;100.00
28167;BME280;15455;53.376;-6.262;2023-03-18T00:43:05;99861.88;;;8.23;100.00
28167;BME280;15455;53.376;-6.262;2023-03-18T00:45:52;99868.84;;;8.22;100.00
28167;BME280;15455;53.376;-6.262;2023-03-18T00:48:38;99872.31;;;8.21;100.00
28167;BME280;15455;53.376;-6.262;2023-03-18T00:51:25;99868.84;;;8.21;100.00
28167;BME280;15455;53.376;-6.262;2023-03-18T00:54:12;99868.84;;;8.21;100.00
28167;BME280;15455;53.376;-6.262;2023-03-18T00:57:02;99865.38;;;8.20;100.00
28167;BME280;15455;53.376;-6.262;2023-03-18T00:59:47;99861.03;;;8.22;100.00
28167;BME280;15455;53.376;-6.262;2023-03-18T01:02:33;99865.34;;;8.25;100.00
28167;BME280;15455;53.376;-6.262;2023-03-18T01:05:19;99878.34;;;8.25;100.00
28167;BME280;15455;53.376;-6.262;2023-03-18T01:08:05;99873.16;;;8.26;100.00
28167;BME280;15455;53.376;-6.262;2023-03-18T01:10:50;99871.38;;;8.28;100.00
28167;BME280;15455;53.376;-6.262;2023-03-18T01:13:37;99870.53;;;8.29;100.00
28167;BME280;15455;53.376;-6.262;2023-03-18T01:16:22;99875.69;;;8.31;100.00
28167;BME280;15455;53.376;-6.262;2023-03-18T01:19:08;99876.56;;;8.31;100.00
28167;BME280;15455;53.376;-6.262;2023-03-18T01:21:54;99875.69;;;8.32;100.00
28167;BME280;15455;53.376;-6.262;2023-03-18T01:24:41;99877.44;;;8.32;100.00
28167;BME280;15455;53.376;-6.262;2023-03-18T01:27:27;99872.25;;;8.32;100.00
28167;BME280;15455;53.376;-6.262;2023-03-18T01:30:16;99878.28;;;8.32;100.00
28167;BME280;15455;53.376;-6.262;2023-03-18T01:33:02;99878.28;;;8.34;100.00
28167;BME280;15455;53.376;-6.262;2023-03-18T01:35:56;99883.47;;;8.35;100.00
28167;BME280;15455;53.376;-6.262;2023-03-18T01:38:45;99885.19;;;8.37;100.00
28167;BME280;15455;53.376;-6.262;2023-03-18T01:41:32;99881.69;;;8.38;100.00
28167;BME280;15455;53.376;-6.262;2023-03-18T01:44:20;99890.38;;;8.38;100.00
28167;BME280;15455;53.376;-6.262;2023-03-18T01:47:07;99891.25;;;8.37;100.00
28167;BME280;15455;53.376;-6.262;2023-03-18T01:49:57;99891.25;;;8.37;100.00
28167;BME280;15455;53.376;-6.262;2023-03-18T01:52:45;99889.53;;;8.39;100.00
28167;BME280;15455;53.376;-6.262;2023-03-18T01:55:31;99893.81;;;8.40;100.00
28167;BME280;15455;53.376;-6.262;2023-03-18T01:58:23;99892.09;;;8.42;100.00
28167;BME280;15455;53.376;-6.262;2023-03-18T02:01:22;99893.78;;;8.43;100.00
28167;BME280;15455;53.376;-6.262;2023-03-18T02:04:12;99899.00;;;8.42;100.00
28167;BME280;15455;53.376;-6.262;2023-03-18T02:06:59;99905.97;;;8.41;100.00
28167;BME280;15455;53.376;-6.262;2023-03-18T02:09:46;99905.97;;;8.40;100.00
28167;BME280;15455;53.376;-6.262;2023-03-18T02:12:35;99902.50;;;8.38;100.00
28167;BME280;15455;53.376;-6.262;2023-03-18T02:15:28;99904.22;;;8.39;100.00
28167;BME280;15455;53.376;-6.262;2023-03-18T02:18:19;99907.69;;;8.38;100.00
28167;BME280;15455;53.376;-6.262;2023-03-18T02:27:24;99909.50;;;8.32;100.00
28167;BME280;15455;53.376;-6.262;2023-03-18T02:30:14;99906.91;;;8.31;100.00
28167;BME280;15455;53.376;-6.262;2023-03-18T02:33:04;99915.56;;;8.31;100.00
28167;BME280;15455;53.376;-6.262;2023-03-18T02:35:54;99914.72;;;8.28;100.00
28167;BME280;15455;53.376;-6.262;2023-03-18T02:38:44;99912.16;;;8.25;100.00
28167;BME280;15455;53.376;-6.262;2023-03-18T02:41:38;99912.16;;;8.25;100.00
28167;BME280;15455;53.376;-6.262;2023-03-18T02:44:24;99913.00;;;8.25;100.00
28167;BME280;15455;53.376;-6.262;2023-03-18T02:47:29;99922.53;;;8.26;100.00
28167;BME280;15455;53.376;-6.262;2023-03-18T02:50:16;99922.53;;;8.26;100.00
28167;BME280;15455;53.376;-6.262;2023-03-18T02:53:04;99919.06;;;8.24;100.00
28167;BME280;15455;53.376;-6.262;2023-03-18T02:55:49;99919.06;;;8.23;100.00
28167;BME280;15455;53.376;-6.262;2023-03-18T02:58:36;99923.41;;;8.24;100.00
28167;BME280;15455;53.376;-6.262;2023-03-18T03:01:22;99927.75;;;8.25;100.00
28167;BME280;15455;53.376;-6.262;2023-03-18T03:04:09;99931.22;;;8.24;100.00
28167;BME280;15455;53.376;-6.262;2023-03-18T03:06:54;99939.00;;;8.24;100.00
28167;BME280;15455;53.376;-6.262;2023-03-18T03:09:53;99933.81;;;8.24;100.00
28167;BME280;15455;53.376;-6.262;2023-03-18T03:12:39;99941.59;;;8.25;100.00
28167;BME280;15455;53.376;-6.262;2023-03-18T03:15:27;99944.16;;;8.28;100.00
28167;BME280;15455;53.376;-6.262;2023-03-18T03:18:16;99944.16;;;8.30;100.00
28167;BME280;15455;53.376;-6.262;2023-03-18T03:21:01;99949.34;;;8.30;100.00
28167;BME280;15455;53.376;-6.262;2023-03-18T03:23:47;99949.34;;;8.31;100.00
28167;BME280;15455;53.376;-6.262;2023-03-18T03:26:32;99948.50;;;8.31;100.00
28167;BME280;15455;53.376;-6.262;2023-03-18T03:29:19;99945.91;;;8.29;100.00
28167;BME280;15455;53.376;-6.262;2023-03-18T03:32:06;99940.75;;;8.25;100.00
28167;BME280;15455;53.376;-6.262;2023-03-18T03:34:52;99941.59;;;8.25;100.00
28167;BME280;15455;53.376;-6.262;2023-03-18T03:37:37;99944.19;;;8.25;100.00
28167;BME280;15455;53.376;-6.262;2023-03-18T03:40:23;99952.84;;;8.24;100.00
28167;BME280;15455;53.376;-6.262;2023-03-18T03:43:11;99952.84;;;8.24;100.00
28167;BME280;15455;53.376;-6.262;2023-03-18T03:45:57;99952.88;;;8.23;100.00
28167;BME280;15455;53.376;-6.262;2023-03-18T03:48:44;99948.53;;;8.26;100.00
28167;BME280;15455;53.376;-6.262;2023-03-18T03:51:30;99951.09;;;8.29;100.00
28167;BME280;15455;53.376;-6.262;2023-03-18T03:54:16;99953.72;;;8.29;100.00
28167;BME280;15455;53.376;-6.262;2023-03-18T03:57:02;99964.09;;;8.32;100.00
28167;BME280;15455;53.376;-6.262;2023-03-18T03:59:49;99961.47;;;8.35;100.00
28167;BME280;15455;53.376;-6.262;2023-03-18T04:02:57;99962.31;;;8.41;100.00
28167;BME280;15455;53.376;-6.262;2023-03-18T04:05:44;99958.81;;;8.40;100.00
28167;BME280;15455;53.376;-6.262;2023-03-18T04:08:29;99957.94;;;8.43;100.00
28167;BME280;15455;53.376;-6.262;2023-03-18T04:11:16;99970.09;;;8.44;100.00
28167;BME280;15455;53.376;-6.262;2023-03-18T04:14:01;99963.16;;;8.46;100.00
28167;BME280;15455;53.376;-6.262;2023-03-18T04:16:47;99965.72;;;8.49;100.00
28167;BME280;15455;53.376;-6.262;2023-03-18T04:19:32;99964.00;;;8.51;100.00
28167;BME280;15455;53.376;-6.262;2023-03-18T04:22:18;99958.81;;;8.49;100.00
28167;BME280;15455;53.376;-6.262;2023-03-18T04:25:04;99957.97;;;8.44;100.00
28167;BME280;15455;53.376;-6.262;2023-03-18T04:27:50;99953.63;;;8.40;100.00
28167;BME280;15455;53.376;-6.262;2023-03-18T04:30:37;99958.00;;;8.37;100.00
28167;BME280;15455;53.376;-6.262;2023-03-18T04:33:28;99956.28;;;8.32;100.00
28167;BME280;15455;53.376;-6.262;2023-03-18T04:36:14;99949.38;;;8.28;100.00
28167;BME280;15455;53.376;-6.262;2023-03-18T04:39:00;99951.13;;;8.22;100.00
28167;BME280;15455;53.376;-6.262;2023-03-18T04:41:45;99950.34;;;8.13;100.00
28167;BME280;15455;53.376;-6.262;2023-03-18T04:44:33;99956.41;;;8.11;100.00
28167;BME280;15455;53.376;-6.262;2023-03-18T04:47:19;99952.09;;;8.05;100.00
28167;BME280;15455;53.376;-6.262;2023-03-18T04:50:08;99946.06;;;7.98;100.00
28167;BME280;15455;53.376;-6.262;2023-03-18T04:52:57;99960.81;;;7.95;100.00
28167;BME280;15455;53.376;-6.262;2023-03-18T04:55:48;99968.63;;;7.93;100.00
28167;BME280;15455;53.376;-6.262;2023-03-18T04:58:38;99965.13;;;7.91;100.00
28167;BME280;15455;53.376;-6.262;2023-03-18T05:01:31;99965.19;;;7.85;100.00
28167;BME280;15455;53.376;-6.262;2023-03-18T05:04:18;99972.13;;;7.83;100.00
28167;BME280;15455;53.376;-6.262;2023-03-18T05:07:11;99970.38;;;7.82;100.00
28167;BME280;15455;53.376;-6.262;2023-03-18T05:10:04;99968.66;;;7.81;100.00
28167;BME280;15455;53.376;-6.262;2023-03-18T05:12:51;99976.44;;;7.81;100.00
28167;BME280;15455;53.376;-6.262;2023-03-18T05:15:44;99979.91;;;7.77;100.00
28167;BME280;15455;53.376;-6.262;2023-03-18T05:18:30;99983.41;;;7.74;100.00
28167;BME280;15455;53.376;-6.262;2023-03-18T05:21:18;99974.75;;;7.71;100.00
28167;BME280;15455;53.376;-6.262;2023-03-18T05:24:04;99981.69;;;7.64;100.00
28167;BME280;15455;53.376;-6.262;2023-03-18T05:26:55;99984.34;;;7.47;100.00
28167;BME280;15455;53.376;-6.262;2023-03-18T05:29:48;99980.06;;;7.35;100.00
28167;BME280;15455;53.376;-6.262;2023-03-18T05:32:39;99974.84;;;7.29;100.00
28167;BME280;15455;53.376;-6.262;2023-03-18T05:35:26;99976.59;;;7.22;100.00
28167;BME280;15455;53.376;-6.262;2023-03-18T05:38:12;99977.47;;;7.15;100.00
28167;BME280;15455;53.376;-6.262;2023-03-18T05:40:58;99974.88;;;7.09;100.00
28167;BME280;15455;53.376;-6.262;2023-03-18T05:43:50;99980.06;;;7.00;100.00
28167;BME280;15455;53.376;-6.262;2023-03-18T05:46:36;99980.06;;;6.87;100.00
28167;BME280;15455;53.376;-6.262;2023-03-18T05:49:35;99993.88;;;6.78;100.00
28167;BME280;15455;53.376;-6.262;2023-03-18T05:52:42;99994.75;;;6.74;100.00
28167;BME280;15455;53.376;-6.262;2023-03-18T05:55:35;100000.81;;;6.72;100.00
28167;BME280;15455;53.376;-6.262;2023-03-18T05:58:20;100001.66;;;6.68;100.00
28167;BME280;15455;53.376;-6.262;2023-03-18T06:01:11;99999.94;;;6.68;100.00
28167;BME280;15455;53.376;-6.262;2023-03-18T06:03:58;100006.84;;;6.72;100.00
28167;BME280;15455;53.376;-6.262;2023-03-18T06:06:45;100000.81;;;6.73;100.00
28167;BME280;15455;53.376;-6.262;2023-03-18T06:09:31;99999.97;;;6.76;100.00
28167;BME280;15455;53.376;-6.262;2023-03-18T06:12:19;100006.00;;;6.80;100.00
28167;BME280;15455;53.376;-6.262;2023-03-18T06:15:09;99997.38;;;6.77;100.00
28167;BME280;15455;53.376;-6.262;2023-03-18T06:17:55;100008.59;;;6.76;100.00
28167;BME280;15455;53.376;-6.262;2023-03-18T06:20:41;100017.22;;;6.77;100.00
28167;BME280;15455;53.376;-6.262;2023-03-18T06:23:27;100012.94;;;6.76;100.00
28167;BME280;15455;53.376;-6.262;2023-03-18T06:26:13;100022.41;;;6.71;100.00
28167;BME280;15455;53.376;-6.262;2023-03-18T06:29:03;100032.78;;;6.69;100.00
28167;BME280;15455;53.376;-6.262;2023-03-18T06:31:49;100035.38;;;6.71;100.00
28167;BME280;15455;53.376;-6.262;2023-03-18T06:34:40;100037.97;;;6.74;100.00
28167;BME280;15455;53.376;-6.262;2023-03-18T06:37:26;100036.28;;;6.76;100.00
28167;BME280;15455;53.376;-6.262;2023-03-18T06:40:12;100043.16;;;6.75;100.00
28167;BME280;15455;53.376;-6.262;2023-03-18T06:42:58;100041.47;;;6.77;100.00
28167;BME280;15455;53.376;-6.262;2023-03-18T06:45:52;100051.81;;;6.76;100.00
28167;BME280;15455;53.376;-6.262;2023-03-18T06:48:38;100049.19;;;6.73;100.00
28167;BME280;15455;53.376;-6.262;2023-03-18T06:51:26;100059.56;;;6.70;100.00
28167;BME280;15455;53.376;-6.262;2023-03-18T06:54:11;100056.13;;;6.66;100.00
28167;BME280;15455;53.376;-6.262;2023-03-18T06:56:59;100060.41;;;6.64;100.00
28167;BME280;15455;53.376;-6.262;2023-03-18T06:59:45;100064.75;;;6.56;100.00
28167;BME280;15455;53.376;-6.262;2023-03-18T07:02:31;100064.69;;;6.43;100.00
28167;BME280;15455;53.376;-6.262;2023-03-18T07:05:19;100069.81;;;6.30;100.00
28167;BME280;15455;53.376;-6.262;2023-03-18T07:08:05;100076.66;;;6.14;100.00
28167;BME280;15455;53.376;-6.262;2023-03-18T07:10:52;100078.38;;;6.08;100.00
28167;BME280;15455;53.376;-6.262;2023-03-18T07:13:42;100083.56;;;6.07;100.00
28167;BME280;15455;53.376;-6.262;2023-03-18T07:16:36;100080.97;;;6.10;100.00
28167;BME280;15455;53.376;-6.262;2023-03-18T07:19:21;100091.38;;;6.19;100.00
28167;BME280;15455;53.376;-6.262;2023-03-18T07:22:07;100095.72;;;6.25;100.00
28167;BME280;15455;53.376;-6.262;2023-03-18T07:24:53;100098.31;;;6.26;100.00
28167;BME280;15455;53.376;-6.262;2023-03-18T07:27:39;100106.13;;;6.34;100.00
28167;BME280;15455;53.376;-6.262;2023-03-18T07:30:26;100109.66;;;6.49;100.00
28167;BME280;15455;53.376;-6.262;2023-03-18T07:33:12;100113.16;;;6.69;100.00
28167;BME280;15455;53.376;-6.262;2023-03-18T07:35:57;100121.00;;;6.92;100.00
28167;BME280;15455;53.376;-6.262;2023-03-18T07:38:43;100126.25;;;7.12;100.00
28167;BME280;15455;53.376;-6.262;2023-03-18T07:41:28;100126.28;;;7.33;100.00
28167;BME280;15455;53.376;-6.262;2023-03-18T07:44:14;100136.66;;;7.53;100.00
28167;BME280;15455;53.376;-6.262;2023-03-18T07:47:00;100137.53;;;7.69;100.00
28167;BME280;15455;53.376;-6.262;2023-03-18T07:49:45;100136.63;;;7.82;100.00
28167;BME280;15455;53.376;-6.262;2023-03-18T07:52:31;100140.94;;;7.98;100.00
28167;BME280;15455;53.376;-6.262;2023-03-18T07:55:16;100144.38;;;8.13;100.00
28167;BME280;15455;53.376;-6.262;2023-03-18T07:58:02;100143.50;;;8.28;100.00
28167;BME280;15455;53.376;-6.262;2023-03-18T08:00:48;100151.22;;;8.42;100.00
28167;BME280;15455;53.376;-6.262;2023-03-18T08:03:35;100153.84;;;8.54;100.00
28167;BME280;15455;53.376;-6.262;2023-03-18T08:06:20;100152.06;;;8.62;100.00
28167;BME280;15455;53.376;-6.262;2023-03-18T08:09:05;100151.19;;;8.69;100.00
28167;BME280;15455;53.376;-6.262;2023-03-18T08:11:51;100147.69;;;8.77;100.00
28167;BME280;15455;53.376;-6.262;2023-03-18T08:14:36;100150.22;;;8.84;100.00
28167;BME280;15455;53.376;-6.262;2023-03-18T08:17:22;100159.72;;;8.95;100.00
28167;BME280;15455;53.376;-6.262;2023-03-18T08:20:08;100158.78;;;9.03;100.00
28167;BME280;15455;53.376;-6.262;2023-03-18T08:22:53;100158.75;;;9.14;100.00
28167;BME280;15455;53.376;-6.262;2023-03-18T08:25:41;100158.66;;;9.27;100.00
28167;BME280;15455;53.376;-6.262;2023-03-18T08:28:27;100156.81;;;9.41;100.00
28167;BME280;15455;53.376;-6.262;2023-03-18T08:31:12;100159.31;;;9.58;100.00
28167;BME280;15455;53.376;-6.262;2023-03-18T08:33:58;100159.97;;;9.80;100.00
28167;BME280;15455;53.376;-6.262;2023-03-18T08:36:45;100162.41;;;10.00;100.00
28167;BME280;15455;53.376;-6.262;2023-03-18T08:39:30;100152.66;;;10.18;100.00
28167;BME280;15455;53.376;-6.262;2023-03-18T08:42:16;100145.56;;;10.32;100.00
28167;BME280;15455;53.376;-6.262;2023-03-18T08:45:01;100139.28;;;10.53;100.00
28167;BME280;15455;53.376;-6.262;2023-03-18T08:47:48;100135.56;;;10.70;100.00
28167;BME280;15455;53.376;-6.262;2023-03-18T08:50:35;100133.56;;;10.90;100.00
28167;BME280;15455;53.376;-6.262;2023-03-18T08:53:20;100124.66;;;11.05;100.00
28167;BME280;15455;53.376;-6.262;2023-03-18T08:56:06;100120.13;;;11.18;100.00
28167;BME280;15455;53.376;-6.262;2023-03-18T08:58:52;100097.53;;;11.16;100.00
28167;BME280;15455;53.376;-6.262;2023-03-18T09:01:38;100103.56;;;11.18;100.00
28167;BME280;15455;53.376;-6.262;2023-03-18T09:04:24;100105.34;;;11.17;100.00
28167;BME280;15455;53.376;-6.262;2023-03-18T09:07:11;100107.13;;;11.15;100.00
28167;BME280;15455;53.376;-6.262;2023-03-18T09:09:57;100114.91;;;11.18;100.00
28167;BME280;15455;53.376;-6.262;2023-03-18T09:12:44;100115.72;;;11.20;100.00
28167;BME280;15455;53.376;-6.262;2023-03-18T09:15:29;100110.47;;;11.22;100.00
28167;BME280;15455;53.376;-6.262;2023-03-18T09:18:17;100112.97;;;11.28;100.00
28167;BME280;15455;53.376;-6.262;2023-03-18T09:21:03;100117.28;;;11.32;100.00
28167;BME280;15455;53.376;-6.262;2023-03-18T09:23:49;100113.75;;;11.36;100.00
28167;BME280;15455;53.376;-6.262;2023-03-18T09:26:36;100114.53;;;11.41;100.00
28167;BME280;15455;53.376;-6.262;2023-03-18T09:29:23;100117.03;;;11.47;100.00
28167;BME280;15455;53.376;-6.262;2023-03-18T09:32:08;100116.03;;;11.56;100.00
28167;BME280;15455;53.376;-6.262;2023-03-18T09:34:54;100114.19;;;11.63;100.00
28167;BME280;15455;53.376;-6.262;2023-03-18T09:37:39;100119.34;;;11.66;100.00
28167;BME280;15455;53.376;-6.262;2023-03-18T09:40:30;100123.91;;;11.53;100.00
28167;BME280;15455;53.376;-6.262;2023-03-18T09:58:03;100149.97;;;11.58;100.00
28167;BME280;15455;53.376;-6.262;2023-03-18T10:00:54;100152.47;;;11.64;100.00
28167;BME280;15455;53.376;-6.262;2023-03-18T10:03:46;100150.75;;;11.64;100.00
28167;BME280;15455;53.376;-6.262;2023-03-18T10:06:35;100153.31;;;11.68;100.00
28167;BME280;15455;53.376;-6.262;2023-03-18T10:09:30;100160.16;;;11.75;100.00
28167;BME280;15455;53.376;-6.262;2023-03-18T10:12:34;100161.91;;;11.73;100.00
28167;BME280;15455;53.376;-6.262;2023-03-18T10:18:17;100166.41;;;11.66;100.00
28167;BME280;15455;53.376;-6.262;2023-03-18T10:21:31;100169.75;;;11.74;100.00
28167;BME280;15455;53.376;-6.262;2023-03-18T10:27:29;100175.72;;;11.81;100.00
28167;BME280;15455;53.376;-6.262;2023-03-18T10:39:36;100190.47;;;11.87;100.00
28167;BME280;15455;53.376;-6.262;2023-03-18T10:42:25;100185.19;;;11.88;100.00
28167;BME280;15455;53.376;-6.262;2023-03-18T10:45:20;100180.59;;;12.04;100.00
28167;BME280;15455;53.376;-6.262;2023-03-18T10:48:16;100191.09;;;12.03;100.00
28167;BME280;15455;53.376;-6.262;2023-03-18T10:56:48;100212.72;;;12.12;100.00
28167;BME280;15455;53.376;-6.262;2023-03-18T10:59:33;100208.41;;;12.10;100.00
28167;BME280;15455;53.376;-6.262;2023-03-18T11:02:30;100218.03;;;12.08;100.00
28167;BME280;15455;53.376;-6.262;2023-03-18T11:05:23;100221.72;;;11.96;100.00
28167;BME280;15455;53.376;-6.262;2023-03-18T11:08:28;100240.34;;;11.73;100.00
28167;BME280;15455;53.376;-6.262;2023-03-18T11:14:19;100259.94;;;11.42;100.00
28167;BME280;15455;53.376;-6.262;2023-03-18T11:17:26;100268.75;;;11.37;100.00
28167;BME280;15455;53.376;-6.262;2023-03-18T11:20:21;100255.75;;;11.30;100.00
28167;BME280;15455;53.376;-6.262;2023-03-18T11:23:38;100254.75;;;11.41;100.00
28167;BME280;15455;53.376;-6.262;2023-03-18T11:26:58;100258.06;;;11.54;100.00
28167;BME280;15455;53.376;-6.262;2023-03-18T11:29:58;100257.03;;;11.64;100.00
28167;BME280;15455;53.376;-6.262;2023-03-18T11:33:02;100252.78;;;11.58;100.00
28167;BME280;15455;53.376;-6.262;2023-03-18T11:35:53;100256.34;;;11.53;100.00
28167;BME280;15455;53.376;-6.262;2023-03-18T11:38:39;100258.06;;;11.54;100.00
28167;BME280;15455;53.376;-6.262;2023-03-18T11:41:26;100267.78;;;11.45;100.00
28167;BME280;15455;53.376;-6.262;2023-03-18T11:44:16;100278.25;;;11.42;100.00
28167;BME280;15455;53.376;-6.262;2023-03-18T11:47:11;100295.03;;;11.24;100.00
28167;BME280;15455;53.376;-6.262;2023-03-18T11:50:01;100300.31;;;11.20;100.00
28167;BME280;15455;53.376;-6.262;2023-03-18T11:52:59;100305.63;;;11.10;100.00
28167;BME280;15455;53.376;-6.262;2023-03-18T11:56:11;100311.69;;;11.16;100.00
28167;BME280;15455;53.376;-6.262;2023-03-18T12:02:25;100325.66;;;11.11;100.00
28167;BME280;15455;53.376;-6.262;2023-03-18T12:20:54;100359.16;;;9.36;100.00
28167;BME280;15455;53.376;-6.262;2023-03-18T12:23:54;100360.84;;;9.38;100.00
28167;BME280;15455;53.376;-6.262;2023-03-18T12:27:02;100359.97;;;9.44;100.00
28167;BME280;15455;53.376;-6.262;2023-03-18T12:36:03;100364.34;;;9.41;100.00
28167;BME280;15455;53.376;-6.262;2023-03-18T12:39:38;100373.88;;;9.43;100.00
28167;BME280;15455;53.376;-6.262;2023-03-18T12:45:32;100383.41;;;9.39;100.00
28167;BME280;15455;53.376;-6.262;2023-03-18T12:48:25;100383.50;;;9.13;100.00
28167;BME280;15455;53.376;-6.262;2023-03-18T12:51:36;100380.91;;;9.04;100.00
28167;BME280;15455;53.376;-6.262;2023-03-18T12:54:56;100387.00;;;9.03;100.00
28167;BME280;15455;53.376;-6.262;2023-03-18T12:57:52;100396.56;;;8.96;100.00
28167;BME280;15455;53.376;-6.262;2023-03-18T13:00:45;100408.72;;;8.91;100.00
28167;BME280;15455;53.376;-6.262;2023-03-18T13:03:34;100397.44;;;8.83;100.00
28167;BME280;15455;53.376;-6.262;2023-03-18T13:06:39;100407.84;;;8.91;100.00
28167;BME280;15455;53.376;-6.262;2023-03-18T13:10:05;100423.44;;;8.97;100.00
28167;BME280;15455;53.376;-6.262;2023-03-18T13:12:56;100435.56;;;9.04;100.00
28167;BME280;15455;53.376;-6.262;2023-03-18T13:15:48;100438.19;;;9.01;100.00
28167;BME280;15455;53.376;-6.262;2023-03-18T13:18:42;100446.81;;;9.20;100.00
28167;BME280;15455;53.376;-6.262;2023-03-18T13:21:29;100447.69;;;9.25;100.00
28167;BME280;15455;53.376;-6.262;2023-03-18T13:30:38;100452.06;;;8.89;100.00
28167;BME280;15455;53.376;-6.262;2023-03-18T13:36:51;100438.19;;;8.98;100.00
28167;BME280;15455;53.376;-6.262;2023-03-18T13:39:48;100432.09;;;9.07;100.00
28167;BME280;15455;53.376;-6.262;2023-03-18T13:42:38;100414.69;;;9.27;100.00
28167;BME280;15455;53.376;-6.262;2023-03-18T13:45:26;100419.03;;;9.41;100.00
28167;BME280;15455;53.376;-6.262;2023-03-18T13:48:20;100419.88;;;9.43;100.00
28167;BME280;15455;53.376;-6.262;2023-03-18T13:51:48;100408.63;;;9.37;100.00
28167;BME280;15455;53.376;-6.262;2023-03-18T13:54:46;100424.25;;;9.25;100.00
28167;BME280;15455;53.376;-6.262;2023-03-18T13:57:42;100419.09;;;9.00;100.00
28167;BME280;15455;53.376;-6.262;2023-03-18T14:00:35;100436.47;;;8.92;100.00
28167;BME280;15455;53.376;-6.262;2023-03-18T14:07:10;100446.03;;;8.87;100.00
28167;BME280;15455;53.376;-6.262;2023-03-18T14:13:25;100439.06;;;8.92;100.00
28167;BME280;15455;53.376;-6.262;2023-03-18T14:16:13;100451.19;;;9.16;100.00
28167;BME280;15455;53.376;-6.262;2023-03-18T14:19:25;100451.09;;;9.56;100.00
28167;BME280;15455;53.376;-6.262;2023-03-18T14:25:18;100446.47;;;10.22;100.00
28167;BME280;15455;53.376;-6.262;2023-03-18T14:31:48;100453.44;;;10.17;100.00
28167;BME280;15455;53.376;-6.262;2023-03-18T14:35:00;100450.00;;;10.12;100.00
28167;BME280;15455;53.376;-6.262;2023-03-18T14:40:56;100457.13;;;9.63;100.00
28167;BME280;15455;53.376;-6.262;2023-03-18T14:43:50;100465.03;;;9.49;100.00
28167;BME280;15455;53.376;-6.262;2023-03-18T14:46:38;100476.28;;;9.48;100.00
28167;BME280;15455;53.376;-6.262;2023-03-18T14:49:58;100494.53;;;9.45;100.00
28167;BME280;15455;53.376;-6.262;2023-03-18T14:53:03;100487.63;;;9.35;100.00
28167;BME280;15455;53.376;-6.262;2023-03-18T14:55:50;100510.19;;;9.22;100.00
28167;BME280;15455;53.376;-6.262;2023-03-18T14:58:35;100506.72;;;9.15;100.00
28167;BME280;15455;53.376;-6.262;2023-03-18T15:01:45;100513.69;;;9.09;100.00
28167;BME280;15455;53.376;-6.262;2023-03-18T15:04:34;100516.25;;;9.27;100.00
28167;BME280;15455;53.376;-6.262;2023-03-18T15:07:30;100521.44;;;9.60;100.00
28167;BME280;15455;53.376;-6.262;2023-03-18T15:10:23;100508.34;;;9.83;100.00
28167;BME280;15455;53.376;-6.262;2023-03-18T15:13:14;100525.78;;;9.50;100.00
28167;BME280;15455;53.376;-6.262;2023-03-18T15:16:03;100529.28;;;9.26;100.00
28167;BME280;15455;53.376;-6.262;2023-03-18T15:18:54;100537.09;;;8.95;100.00
28167;BME280;15455;53.376;-6.262;2023-03-18T15:21:40;100533.63;;;8.77;100.00
28167;BME280;15455;53.376;-6.262;2023-03-18T15:24:26;100536.22;;;8.77;100.00
28167;BME280;15455;53.376;-6.262;2023-03-18T15:27:14;100535.34;;;8.86;100.00
28167;BME280;15455;53.376;-6.262;2023-03-18T15:30:04;100524.09;;;8.96;100.00
28167;BME280;15455;53.376;-6.262;2023-03-18T15:32:54;100527.56;;;9.06;100.00
28167;BME280;15455;53.376;-6.262;2023-03-18T15:35:53;100535.38;;;9.06;100.00
28167;BME280;15455;53.376;-6.262;2023-03-18T15:38:48;100533.63;;;9.10;100.00
28167;BME280;15455;53.376;-6.262;2023-03-18T15:41:33;100535.34;;;9.54;100.00
28167;BME280;15455;53.376;-6.262;2023-03-18T15:44:28;100533.59;;;9.61;100.00
28167;BME280;15455;53.376;-6.262;2023-03-18T15:53:18;100528.41;;;9.41;100.00
28167;BME280;15455;53.376;-6.262;2023-03-18T16:01:56;100525.59;;;10.15;100.00
28167;BME280;15455;53.376;-6.262;2023-03-18T16:04:42;100530.72;;;10.42;100.00
28167;BME280;15455;53.376;-6.262;2023-03-18T16:07:30;100529.78;;;10.51;100.00
28167;BME280;15455;53.376;-6.262;2023-03-18T16:10:17;100535.97;;;10.24;100.00
28167;BME280;15455;53.376;-6.262;2023-03-18T16:13:14;100542.09;;;10.24;100.00
28167;BME280;15455;53.376;-6.262;2023-03-18T16:16:02;100526.31;;;10.51;100.00
28167;BME280;15455;53.376;-6.262;2023-03-18T16:18:47;100537.69;;;10.40;100.00
28167;BME280;15455;53.376;-6.262;2023-03-18T16:21:33;100550.00;;;9.94;100.00
28167;BME280;15455;53.376;-6.262;2023-03-18T16:24:18;100564.00;;;9.54;100.00
28167;BME280;15455;53.376;-6.262;2023-03-18T16:27:04;100550.13;;;9.16;100.00
28167;BME280;15455;53.376;-6.262;2023-03-18T16:29:51;100558.81;;;9.06;100.00
28167;BME280;15455;53.376;-6.262;2023-03-18T16:32:37;100564.88;;;8.97;100.00